createdAt,value
2023-04-10T00:00:36.482Z,531.00
2023-04-10T00:01:36.606Z,528.00
2023-04-10T00:02:36.743Z,530.00
2023-04-10T00:03:36.825Z,531.00
2023-04-10T00:04:36.753Z,531.00
2023-04-10T00:05:36.788Z,532.00
2023-04-10T00:06:36.876Z,530.00
2023-04-10T00:07:37.799Z,532.00
2023-04-10T00:08:36.946Z,533.00
2023-04-10T00:09:37.016Z,532.00
2023-04-10T00:10:37.074Z,528.00
2023-04-10T00:11:37.148Z,529.00
2023-04-10T00:12:37.184Z,527.00
2023-04-10T00:13:37.246Z,530.00
2023-04-10T00:14:37.291Z,527.00
2023-04-10T00:15:37.375Z,527.00
2023-04-10T00:16:37.824Z,532.00
2023-04-10T00:17:37.512Z,529.00
2023-04-10T00:18:37.566Z,528.00
2023-04-10T00:19:37.632Z,525.00
2023-04-10T00:20:37.705Z,531.00
2023-04-10T00:21:37.738Z,527.00
2023-04-10T00:22:37.816Z,527.00
2023-04-10T00:23:37.860Z,527.00
2023-04-10T00:24:37.903Z,525.00
2023-04-10T00:25:38.000Z,530.00
2023-04-10T00:26:38.074Z,525.00
2023-04-10T00:27:38.109Z,529.00
2023-04-10T00:28:38.221Z,526.00
2023-04-10T00:29:38.211Z,526.00
2023-04-10T00:30:38.245Z,527.00
2023-04-10T00:31:38.389Z,528.00
2023-04-10T00:32:38.416Z,523.00
2023-04-10T00:33:38.459Z,524.00
2023-04-10T00:34:38.541Z,522.00
2023-04-10T00:35:38.635Z,527.00
2023-04-10T00:36:38.673Z,526.00
2023-04-10T00:37:38.729Z,524.00
2023-04-10T00:38:38.731Z,525.00
2023-04-10T00:39:38.792Z,528.00
2023-04-10T00:40:38.854Z,524.00
2023-04-10T00:41:38.915Z,523.00
2023-04-10T00:42:38.970Z,527.00
2023-04-10T00:43:38.997Z,521.00
2023-04-10T00:44:39.056Z,521.00
2023-04-10T00:45:39.227Z,518.00
2023-04-10T00:46:39.211Z,525.00
2023-04-10T00:47:39.301Z,522.00
2023-04-10T00:48:39.368Z,524.00
2023-04-10T00:49:39.374Z,526.00
2023-04-10T00:50:39.417Z,521.00
2023-04-10T00:51:39.483Z,523.00
2023-04-10T00:52:39.506Z,523.00
2023-04-10T00:53:39.585Z,523.00
2023-04-10T00:54:39.621Z,523.00
2023-04-10T00:55:39.625Z,516.00
2023-04-10T00:56:39.660Z,523.00
2023-04-10T00:57:39.683Z,521.00
2023-04-10T00:58:39.772Z,523.00
2023-04-10T00:59:39.778Z,523.00
2023-04-10T01:00:39.834Z,521.00
2023-04-10T01:01:40.033Z,521.00
2023-04-10T01:02:40.151Z,522.00
2023-04-10T01:03:40.128Z,523.00
2023-04-10T01:04:40.072Z,520.00
2023-04-10T01:05:40.118Z,524.00
2023-04-10T01:06:40.185Z,522.00
2023-04-10T01:07:40.224Z,521.00
2023-04-10T01:08:40.252Z,521.00
2023-04-10T01:09:40.321Z,521.00
2023-04-10T01:10:40.340Z,520.00
2023-04-10T01:11:40.422Z,520.00
2023-04-10T01:12:40.480Z,522.00
2023-04-10T01:13:40.487Z,522.00
2023-04-10T01:14:40.558Z,518.00
2023-04-10T01:15:40.590Z,522.00
2023-04-10T01:16:40.723Z,521.00
2023-04-10T01:17:40.723Z,524.00
2023-04-10T01:18:40.758Z,520.00
2023-04-10T01:19:40.790Z,524.00
2023-04-10T01:20:40.809Z,520.00
2023-04-10T01:21:40.852Z,519.00
2023-04-10T01:22:40.866Z,525.00
2023-04-10T01:23:40.911Z,523.00
2023-04-10T01:24:40.969Z,519.00
2023-04-10T01:25:40.982Z,519.00
2023-04-10T01:26:41.025Z,519.00
2023-04-10T01:27:41.055Z,521.00
2023-04-10T01:28:41.102Z,518.00
2023-04-10T01:29:42.119Z,519.00
2023-04-10T01:30:41.228Z,518.00
2023-04-10T01:31:41.213Z,518.00
2023-04-10T01:32:41.253Z,518.00
2023-04-10T01:33:41.845Z,519.00
2023-04-10T01:34:41.408Z,518.00
2023-04-10T01:35:41.420Z,523.00
2023-04-10T01:36:41.535Z,520.00
2023-04-10T01:37:41.453Z,522.00
2023-04-10T01:38:41.517Z,517.00
2023-04-10T01:39:41.550Z,519.00
2023-04-10T01:40:41.523Z,519.00
2023-04-10T01:41:41.565Z,516.00
2023-04-10T01:42:43.223Z,517.00
2023-04-10T01:43:41.572Z,520.00
2023-04-10T01:44:41.588Z,519.00
2023-04-10T01:45:42.348Z,519.00
2023-04-10T01:46:41.631Z,523.00
2023-04-10T01:47:41.589Z,518.00
2023-04-10T01:48:41.524Z,518.00
2023-04-10T01:49:41.569Z,513.00
2023-04-10T01:50:41.520Z,518.00
2023-04-10T01:51:41.821Z,516.00
2023-04-10T01:52:41.522Z,520.00
2023-04-10T01:53:41.502Z,519.00
2023-04-10T01:54:41.500Z,515.00
2023-04-10T01:55:41.477Z,517.00
2023-04-10T01:56:41.486Z,514.00
2023-04-10T01:57:41.473Z,514.00
2023-04-10T01:58:41.507Z,514.00
2023-04-10T01:59:41.444Z,514.00
2023-04-10T02:00:41.435Z,514.00
2023-04-10T02:01:41.562Z,515.00
2023-04-10T02:02:41.585Z,515.00
2023-04-10T02:03:41.506Z,515.00
2023-04-10T02:04:41.447Z,513.00
2023-04-10T02:05:41.425Z,515.00
2023-04-10T02:06:41.417Z,512.00
2023-04-10T02:07:41.404Z,510.00
2023-04-10T02:08:41.390Z,511.00
2023-04-10T02:09:41.383Z,514.00
2023-04-10T02:10:41.385Z,510.00
2023-04-10T02:11:41.397Z,514.00
2023-04-10T02:12:41.351Z,514.00
2023-04-10T02:13:41.362Z,515.00
2023-04-10T02:14:41.332Z,516.00
2023-04-10T02:15:41.432Z,512.00
2023-04-10T02:16:41.317Z,511.00
2023-04-10T02:17:41.359Z,515.00
2023-04-10T02:18:41.345Z,512.00
2023-04-10T02:19:41.368Z,513.00
2023-04-10T02:20:41.337Z,513.00
2023-04-10T02:21:41.314Z,514.00
2023-04-10T02:22:41.335Z,516.00
2023-04-10T02:23:41.319Z,510.00
2023-04-10T02:24:41.302Z,512.00
2023-04-10T02:25:41.282Z,510.00
2023-04-10T02:26:41.299Z,515.00
2023-04-10T02:27:41.294Z,510.00
2023-04-10T02:28:41.229Z,511.00
2023-04-10T02:29:41.246Z,508.00
2023-04-10T02:30:41.252Z,515.00
2023-04-10T02:31:41.329Z,510.00
2023-04-10T02:32:41.275Z,511.00
2023-04-10T02:33:41.242Z,513.00
2023-04-10T02:34:41.240Z,508.00
2023-04-10T02:35:41.249Z,510.00
2023-04-10T02:36:41.193Z,514.00
2023-04-10T02:37:41.416Z,510.00
2023-04-10T02:38:41.199Z,514.00
2023-04-10T02:39:41.181Z,507.00
2023-04-10T02:40:41.181Z,511.00
2023-04-10T02:41:41.187Z,511.00
2023-04-10T02:42:41.166Z,510.00
2023-04-10T02:43:41.288Z,507.00
2023-04-10T02:44:41.168Z,508.00
2023-04-10T02:45:41.171Z,505.00
2023-04-10T02:46:41.271Z,511.00
2023-04-10T02:47:41.321Z,504.00
2023-04-10T02:48:41.296Z,508.00
2023-04-10T02:49:41.318Z,514.00
2023-04-10T02:50:41.308Z,510.00
2023-04-10T02:51:41.334Z,516.00
2023-04-10T02:52:41.317Z,506.00
2023-04-10T02:53:41.354Z,505.00
2023-04-10T02:54:41.279Z,509.00
2023-04-10T02:55:41.297Z,506.00
2023-04-10T02:56:41.287Z,509.00
2023-04-10T02:57:41.357Z,508.00
2023-04-10T02:58:41.364Z,508.00
2023-04-10T02:59:41.339Z,507.00
2023-04-10T03:00:41.375Z,509.00
2023-04-10T03:01:41.414Z,508.00
2023-04-10T03:02:41.444Z,512.00
2023-04-10T03:03:41.436Z,509.00
2023-04-10T03:04:41.601Z,508.00
2023-04-10T03:05:41.509Z,504.00
2023-04-10T03:06:41.527Z,506.00
2023-04-10T03:07:41.527Z,507.00
2023-04-10T03:08:41.520Z,505.00
2023-04-10T03:09:41.523Z,503.00
2023-04-10T03:10:41.559Z,507.00
2023-04-10T03:11:41.669Z,507.00
2023-04-10T03:12:41.656Z,507.00
2023-04-10T03:13:41.669Z,505.00
2023-04-10T03:14:41.613Z,501.00
2023-04-10T03:15:41.653Z,506.00
2023-04-10T03:16:41.792Z,503.00
2023-04-10T03:17:41.870Z,505.00
2023-04-10T03:18:41.866Z,504.00
2023-04-10T03:19:41.854Z,509.00
2023-04-10T03:20:43.186Z,505.00
2023-04-10T03:21:41.875Z,509.00
2023-04-10T03:22:41.872Z,506.00
2023-04-10T03:23:41.888Z,503.00
2023-04-10T03:24:41.869Z,505.00
2023-04-10T03:25:41.842Z,503.00
2023-04-10T03:26:41.876Z,501.00
2023-04-10T03:27:41.866Z,505.00
2023-04-10T03:28:41.844Z,503.00
2023-04-10T03:29:41.802Z,503.00
2023-04-10T03:30:41.825Z,510.00
2023-04-10T03:31:41.903Z,500.00
2023-04-10T03:32:41.813Z,503.00
2023-04-10T03:33:41.828Z,503.00
2023-04-10T03:34:41.800Z,505.00
2023-04-10T03:35:41.816Z,510.00
2023-04-10T03:36:41.798Z,502.00
2023-04-10T03:37:41.768Z,507.00
2023-04-10T03:38:41.819Z,507.00
2023-04-10T03:39:41.746Z,505.00
2023-04-10T03:40:41.759Z,507.00
2023-04-10T03:41:41.856Z,504.00
2023-04-10T03:42:41.730Z,504.00
2023-04-10T03:43:41.797Z,503.00
2023-04-10T03:44:41.720Z,508.00
2023-04-10T03:45:41.734Z,504.00
2023-04-10T03:46:41.769Z,504.00
2023-04-10T03:47:41.749Z,505.00
2023-04-10T03:48:41.721Z,503.00
2023-04-10T03:49:41.702Z,503.00
2023-04-10T03:50:41.698Z,508.00
2023-04-10T03:51:41.696Z,508.00
2023-04-10T03:52:41.688Z,504.00
2023-04-10T03:53:41.692Z,503.00
2023-04-10T03:54:41.664Z,510.00
2023-04-10T03:55:41.638Z,504.00
2023-04-10T03:56:41.649Z,506.00
2023-04-10T03:57:41.601Z,506.00
2023-04-10T03:58:41.649Z,504.00
2023-04-10T03:59:41.617Z,508.00
2023-04-10T04:00:41.602Z,506.00
2023-04-10T04:01:41.639Z,504.00
2023-04-10T04:02:41.746Z,501.00
2023-04-10T04:03:41.743Z,509.00
2023-04-10T04:04:41.676Z,505.00
2023-04-10T04:05:41.564Z,502.00
2023-04-10T04:06:41.548Z,509.00
2023-04-10T04:07:41.558Z,512.00
2023-04-10T04:08:41.530Z,507.00
2023-04-10T04:09:41.549Z,503.00
2023-04-10T04:10:41.503Z,500.00
2023-04-10T04:11:41.525Z,508.00
2023-04-10T04:12:41.528Z,509.00
2023-04-10T04:13:41.526Z,505.00
2023-04-10T04:14:41.508Z,508.00
2023-04-10T04:15:41.502Z,505.00
2023-04-10T04:16:41.527Z,508.00
2023-04-10T04:17:41.546Z,503.00
2023-04-10T04:18:41.451Z,503.00
2023-04-10T04:19:41.483Z,510.00
2023-04-10T04:20:41.531Z,511.00
2023-04-10T04:21:41.467Z,507.00
2023-04-10T04:22:41.447Z,500.00
2023-04-10T04:23:41.422Z,510.00
2023-04-10T04:24:41.422Z,509.00
2023-04-10T04:25:41.441Z,507.00
2023-04-10T04:26:41.447Z,505.00
2023-04-10T04:27:41.443Z,509.00
2023-04-10T04:28:41.459Z,505.00
2023-04-10T04:29:41.426Z,501.00
2023-04-10T04:30:41.401Z,506.00
2023-04-10T04:31:41.432Z,502.00
2023-04-10T04:32:41.453Z,509.00
2023-04-10T04:33:41.393Z,506.00
2023-04-10T04:34:41.397Z,510.00
2023-04-10T04:35:41.385Z,511.00
2023-04-10T04:36:41.420Z,505.00
2023-04-10T04:37:41.348Z,503.00
2023-04-10T04:38:41.347Z,504.00
2023-04-10T04:39:41.938Z,505.00
2023-04-10T04:40:41.345Z,502.00
2023-04-10T04:41:41.374Z,502.00
2023-04-10T04:42:41.349Z,502.00
2023-04-10T04:43:41.315Z,506.00
2023-04-10T04:44:41.291Z,508.00
2023-04-10T04:45:41.357Z,509.00
2023-04-10T04:46:43.963Z,507.00
2023-04-10T04:47:41.322Z,507.00
2023-04-10T04:48:41.278Z,508.00
2023-04-10T04:49:41.272Z,507.00
2023-04-10T04:50:41.284Z,503.00
2023-04-10T04:51:41.311Z,505.00
2023-04-10T04:52:41.260Z,505.00
2023-04-10T04:53:41.262Z,509.00
2023-04-10T04:54:41.281Z,510.00
2023-04-10T04:55:41.243Z,506.00
2023-04-10T04:56:41.249Z,510.00
2023-04-10T04:57:41.243Z,507.00
2023-04-10T04:58:41.238Z,504.00
2023-04-10T04:59:41.198Z,508.00
2023-04-10T05:00:41.231Z,505.00
2023-04-10T05:01:41.263Z,504.00
2023-04-10T05:02:41.271Z,508.00
2023-04-10T05:03:41.357Z,504.00
2023-04-10T05:04:41.188Z,501.00
2023-04-10T05:05:41.183Z,507.00
2023-04-10T05:06:41.184Z,506.00
2023-04-10T05:07:41.160Z,507.00
2023-04-10T05:08:41.166Z,505.00
2023-04-10T05:09:41.166Z,514.00
2023-04-10T05:10:41.163Z,508.00
2023-04-10T05:11:41.159Z,510.00
2023-04-10T05:12:41.127Z,505.00
2023-04-10T05:13:41.134Z,508.00
2023-04-10T05:14:41.112Z,502.00
2023-04-10T05:15:41.152Z,508.00
2023-04-10T05:16:41.099Z,508.00
2023-04-10T05:17:41.110Z,507.00
2023-04-10T05:18:41.164Z,508.00
2023-04-10T05:19:41.078Z,506.00
2023-04-10T05:20:41.085Z,507.00
2023-04-10T05:21:41.082Z,505.00
2023-04-10T05:22:41.074Z,504.00
2023-04-10T05:23:41.080Z,506.00
2023-04-10T05:24:41.062Z,506.00
2023-04-10T05:25:41.077Z,504.00
2023-04-10T05:26:41.033Z,503.00
2023-04-10T05:27:41.023Z,505.00
2023-04-10T05:28:41.014Z,506.00
2023-04-10T05:29:41.042Z,506.00
2023-04-10T05:30:41.020Z,506.00
2023-04-10T05:31:41.012Z,505.00
2023-04-10T05:32:41.057Z,506.00
2023-04-10T05:33:40.986Z,501.00
2023-04-10T05:34:40.979Z,505.00
2023-04-10T05:35:40.991Z,507.00
2023-04-10T05:36:40.989Z,510.00
2023-04-10T05:37:40.962Z,507.00
2023-04-10T05:38:40.984Z,503.00
2023-04-10T05:39:40.953Z,504.00
2023-04-10T05:40:40.944Z,509.00
2023-04-10T05:41:40.978Z,506.00
2023-04-10T05:42:40.958Z,504.00
2023-04-10T05:43:40.941Z,513.00
2023-04-10T05:44:40.935Z,505.00
2023-04-10T05:45:40.916Z,505.00
2023-04-10T05:46:40.974Z,507.00
2023-04-10T05:47:40.963Z,502.00
2023-04-10T05:48:40.889Z,501.00
2023-04-10T05:49:40.905Z,506.00
2023-04-10T05:50:40.901Z,511.00
2023-04-10T05:51:40.905Z,502.00
2023-04-10T05:52:40.912Z,507.00
2023-04-10T05:53:40.891Z,508.00
2023-04-10T05:54:40.858Z,500.00
2023-04-10T05:55:40.867Z,510.00
2023-04-10T05:56:40.871Z,502.00
2023-04-10T05:57:40.819Z,504.00
2023-04-10T05:58:40.818Z,501.00
2023-04-10T05:59:40.824Z,506.00
2023-04-10T06:00:40.846Z,503.00
2023-04-10T06:01:40.809Z,505.00
2023-04-10T06:02:40.951Z,504.00
2023-04-10T06:03:41.088Z,504.00
2023-04-10T06:04:41.037Z,506.00
2023-04-10T06:05:40.803Z,508.00
2023-04-10T06:06:40.773Z,509.00
2023-04-10T06:07:40.783Z,504.00
2023-04-10T06:08:40.802Z,508.00
2023-04-10T06:09:40.802Z,507.00
2023-04-10T06:10:40.787Z,508.00
2023-04-10T06:11:40.805Z,506.00
2023-04-10T06:12:40.764Z,504.00
2023-04-10T06:13:40.816Z,503.00
2023-04-10T06:14:40.732Z,503.00
2023-04-10T06:15:40.769Z,505.00
2023-04-10T06:16:40.750Z,504.00
2023-04-10T06:17:40.687Z,504.00
2023-04-10T06:18:40.747Z,506.00
2023-04-10T06:19:40.743Z,504.00
2023-04-10T06:20:40.689Z,508.00
2023-04-10T06:21:40.658Z,507.00
2023-04-10T06:22:40.690Z,504.00
2023-04-10T06:23:40.692Z,504.00
2023-04-10T06:24:40.655Z,506.00
2023-04-10T06:25:40.664Z,504.00
2023-04-10T06:26:40.661Z,505.00
2023-04-10T06:27:40.651Z,504.00
2023-04-10T06:28:40.607Z,503.00
2023-04-10T06:29:40.631Z,509.00
2023-04-10T06:30:40.650Z,503.00
2023-04-10T06:31:40.681Z,513.00
2023-04-10T06:32:40.644Z,504.00
2023-04-10T06:33:40.608Z,506.00
2023-04-10T06:34:40.610Z,506.00
2023-04-10T06:35:40.605Z,507.00
2023-04-10T06:36:40.579Z,504.00
2023-04-10T06:37:40.606Z,510.00
2023-04-10T06:38:40.608Z,506.00
2023-04-10T06:39:40.551Z,504.00
2023-04-10T06:40:40.551Z,505.00
2023-04-10T06:41:40.563Z,504.00
2023-04-10T06:42:40.527Z,500.00
2023-04-10T06:43:40.543Z,510.00
2023-04-10T06:44:40.553Z,515.00
2023-04-10T06:45:40.523Z,507.00
2023-04-10T06:46:40.584Z,502.00
2023-04-10T06:47:40.685Z,504.00
2023-04-10T06:48:40.605Z,504.00
2023-04-10T06:49:40.675Z,510.00
2023-04-10T06:50:40.776Z,506.00
2023-04-10T06:51:40.788Z,507.00
2023-04-10T06:52:40.844Z,510.00
2023-04-10T06:53:40.874Z,504.00
2023-04-10T06:54:40.909Z,510.00
2023-04-10T06:55:40.974Z,514.00
2023-04-10T06:56:40.997Z,512.00
2023-04-10T06:57:41.360Z,510.00
2023-04-10T06:58:41.116Z,511.00
2023-04-10T06:59:41.194Z,518.00
2023-04-10T07:00:41.258Z,516.00
2023-04-10T07:01:41.341Z,511.00
2023-04-10T07:02:41.387Z,513.00
2023-04-10T07:03:41.479Z,515.00
2023-04-10T07:04:41.467Z,508.00
2023-04-10T07:05:42.323Z,514.00
2023-04-10T07:06:41.617Z,515.00
2023-04-10T07:07:41.657Z,521.00
2023-04-10T07:08:41.710Z,518.00
2023-04-10T07:09:41.774Z,518.00
2023-04-10T07:10:41.847Z,522.00
2023-04-10T07:11:41.909Z,521.00
2023-04-10T07:12:41.928Z,522.00
2023-04-10T07:13:42.009Z,520.00
2023-04-10T07:14:42.080Z,520.00
2023-04-10T07:15:42.145Z,522.00
2023-04-10T07:16:42.225Z,521.00
2023-04-10T07:17:42.258Z,521.00
2023-04-10T07:18:42.305Z,524.00
2023-04-10T07:19:42.363Z,523.00
2023-04-10T07:20:42.425Z,522.00
2023-04-10T07:21:42.488Z,524.00
2023-04-10T07:22:42.529Z,524.00
2023-04-10T07:23:42.574Z,524.00
2023-04-10T07:24:42.638Z,521.00
2023-04-10T07:25:42.799Z,518.00
2023-04-10T07:26:42.739Z,519.00
2023-04-10T07:27:42.780Z,517.00
2023-04-10T07:28:42.907Z,524.00
2023-04-10T07:29:42.901Z,520.00
2023-04-10T07:30:42.941Z,516.00
2023-04-10T07:31:43.084Z,521.00
2023-04-10T07:32:43.188Z,517.00
2023-04-10T07:33:43.129Z,524.00
2023-04-10T07:34:43.174Z,512.00
2023-04-10T07:35:43.226Z,514.00
2023-04-10T07:36:45.005Z,508.00
2023-04-10T07:37:43.262Z,515.00
2023-04-10T07:38:43.277Z,509.00
2023-04-10T07:39:43.225Z,513.00
2023-04-10T07:40:43.231Z,516.00
2023-04-10T07:41:43.227Z,515.00
2023-04-10T07:42:43.226Z,510.00
2023-04-10T07:43:43.199Z,512.00
2023-04-10T07:44:43.209Z,513.00
2023-04-10T07:45:43.207Z,511.00
2023-04-10T07:46:43.204Z,515.00
2023-04-10T07:47:43.202Z,514.00
2023-04-10T07:48:43.172Z,517.00
2023-04-10T07:49:43.138Z,517.00
2023-04-10T07:50:43.136Z,519.00
2023-04-10T07:51:43.171Z,519.00
2023-04-10T07:52:43.153Z,525.00
2023-04-10T07:53:43.151Z,527.00
2023-04-10T07:54:43.144Z,530.00
2023-04-10T07:55:43.142Z,530.00
2023-04-10T07:56:43.132Z,524.00
2023-04-10T07:57:43.085Z,534.00
2023-04-10T07:58:43.082Z,538.00
2023-04-10T07:59:43.096Z,536.00
2023-04-10T08:00:43.077Z,536.00
2023-04-10T08:01:43.101Z,538.00
2023-04-10T08:02:43.312Z,544.00
2023-04-10T08:03:43.127Z,546.00
2023-04-10T08:04:43.247Z,544.00
2023-04-10T08:05:43.047Z,550.00
2023-04-10T08:06:43.082Z,547.00
2023-04-10T08:07:43.088Z,552.00
2023-04-10T08:08:43.042Z,551.00
2023-04-10T08:09:43.023Z,554.00
2023-04-10T08:10:43.006Z,549.00
2023-04-10T08:11:43.052Z,551.00
2023-04-10T08:12:43.020Z,551.00
2023-04-10T08:13:43.028Z,554.00
2023-04-10T08:14:42.975Z,552.00
2023-04-10T08:15:42.986Z,550.00
2023-04-10T08:16:42.985Z,553.00
2023-04-10T08:17:43.015Z,550.00
2023-04-10T08:18:42.947Z,547.00
2023-04-10T08:19:43.493Z,549.00
2023-04-10T08:20:42.971Z,544.00
2023-04-10T08:21:42.948Z,544.00
2023-04-10T08:22:42.955Z,547.00
2023-04-10T08:23:42.937Z,545.00
2023-04-10T08:24:42.929Z,544.00
2023-04-10T08:25:42.932Z,549.00
2023-04-10T08:26:42.976Z,544.00
2023-04-10T08:27:43.025Z,549.00
2023-04-10T08:28:43.076Z,549.00
2023-04-10T08:29:43.076Z,546.00
2023-04-10T08:30:43.186Z,549.00
2023-04-10T08:31:43.187Z,549.00
2023-04-10T08:32:43.251Z,546.00
2023-04-10T08:33:43.285Z,550.00
2023-04-10T08:34:43.333Z,542.00
2023-04-10T08:35:43.348Z,543.00
2023-04-10T08:36:43.399Z,543.00
2023-04-10T08:37:49.611Z,550.00
2023-04-10T08:38:44.464Z,550.00
2023-04-10T08:39:43.400Z,550.00
2023-04-10T08:40:43.409Z,550.00
2023-04-10T08:41:43.410Z,550.00
2023-04-10T08:42:43.416Z,549.00
2023-04-10T08:43:43.482Z,543.00
2023-04-10T08:44:43.401Z,549.00
2023-04-10T08:45:43.385Z,544.00
2023-04-10T08:46:43.434Z,544.00
2023-04-10T08:47:43.423Z,543.00
2023-04-10T08:48:43.365Z,543.00
2023-04-10T08:49:43.358Z,544.00
2023-04-10T08:50:43.336Z,544.00
2023-04-10T08:51:43.336Z,543.00
2023-04-10T08:52:43.357Z,549.00
2023-04-10T08:53:43.416Z,542.00
2023-04-10T08:54:43.429Z,542.00
2023-04-10T08:55:43.439Z,542.00
2023-04-10T08:56:43.517Z,536.00
2023-04-10T08:57:50.831Z,542.00
2023-04-10T08:58:44.515Z,543.00
2023-04-10T08:59:43.531Z,543.00
2023-04-10T09:00:43.517Z,543.00
2023-04-10T09:01:43.592Z,539.00
2023-04-10T09:02:43.761Z,544.00
2023-04-10T09:03:43.661Z,544.00
2023-04-10T09:04:43.572Z,544.00
2023-04-10T09:05:43.444Z,542.00
2023-04-10T09:06:43.456Z,548.00
2023-04-10T09:07:43.474Z,539.00
2023-04-10T09:08:43.503Z,535.00
2023-04-10T09:09:43.431Z,543.00
2023-04-10T09:10:43.443Z,544.00
2023-04-10T09:11:43.407Z,542.00
2023-04-10T09:12:43.410Z,544.00
2023-04-10T09:13:43.429Z,539.00
2023-04-10T09:14:43.396Z,547.00
2023-04-10T09:15:43.413Z,545.00
2023-04-10T09:16:43.435Z,541.00
2023-04-10T09:17:43.491Z,541.00
2023-04-10T09:18:43.496Z,540.00
2023-04-10T09:19:43.536Z,543.00
2023-04-10T09:20:43.614Z,543.00
2023-04-10T09:21:43.535Z,551.00
2023-04-10T09:22:43.586Z,546.00
2023-04-10T09:23:43.592Z,536.00
2023-04-10T09:24:43.619Z,542.00
2023-04-10T09:25:43.640Z,539.00
2023-04-10T09:26:43.695Z,534.00
2023-04-10T09:27:43.683Z,539.00
2023-04-10T09:28:43.691Z,538.00
2023-04-10T09:29:43.730Z,545.00
2023-04-10T09:30:43.743Z,546.00
2023-04-10T09:31:43.907Z,543.00
2023-04-10T09:32:43.831Z,538.00
2023-04-10T09:33:43.780Z,542.00
2023-04-10T09:34:43.827Z,545.00
2023-04-10T09:35:43.851Z,541.00
2023-04-10T09:36:43.976Z,539.00
2023-04-10T09:37:43.894Z,540.00
2023-04-10T09:38:43.896Z,541.00
2023-04-10T09:39:43.959Z,541.00
2023-04-10T09:40:43.952Z,541.00
2023-04-10T09:41:43.943Z,542.00
2023-04-10T09:42:43.962Z,547.00
2023-04-10T09:43:43.959Z,539.00
2023-04-10T09:44:44.049Z,543.00
2023-04-10T09:45:44.053Z,543.00
2023-04-10T09:46:44.093Z,540.00
2023-04-10T09:47:44.132Z,543.00
2023-04-10T09:48:44.075Z,542.00
2023-04-10T09:49:44.083Z,540.00
2023-04-10T09:50:44.131Z,544.00
2023-04-10T09:51:44.138Z,543.00
2023-04-10T09:52:44.113Z,541.00
2023-04-10T09:53:44.137Z,546.00
2023-04-10T09:54:44.160Z,540.00
2023-04-10T09:55:44.186Z,542.00
2023-04-10T09:56:44.165Z,543.00
2023-04-10T09:57:44.149Z,537.00
2023-04-10T09:58:44.183Z,545.00
2023-04-10T09:59:44.190Z,543.00
2023-04-10T10:00:44.197Z,545.00
2023-04-10T10:01:44.329Z,544.00
2023-04-10T10:02:44.365Z,545.00
2023-04-10T10:03:44.296Z,548.00
2023-04-10T10:04:44.313Z,547.00
2023-04-10T10:05:44.264Z,548.00
2023-04-10T10:06:44.290Z,546.00
2023-04-10T10:07:44.268Z,547.00
2023-04-10T10:08:44.290Z,545.00
2023-04-10T10:09:44.308Z,545.00
2023-04-10T10:10:44.336Z,546.00
2023-04-10T10:11:44.343Z,549.00
2023-04-10T10:12:44.389Z,547.00
2023-04-10T10:13:44.364Z,542.00
2023-04-10T10:14:44.373Z,547.00
2023-04-10T10:15:44.382Z,547.00
2023-04-10T10:16:44.480Z,545.00
2023-04-10T10:17:44.422Z,552.00
2023-04-10T10:18:44.383Z,548.00
2023-04-10T10:19:44.385Z,545.00
2023-04-10T10:20:44.365Z,550.00
2023-04-10T10:21:44.374Z,545.00
2023-04-10T10:22:44.347Z,544.00
2023-04-10T10:23:44.372Z,549.00
2023-04-10T10:24:44.343Z,552.00
2023-04-10T10:25:44.348Z,550.00
2023-04-10T10:26:44.357Z,551.00
2023-04-10T10:27:44.360Z,553.00
2023-04-10T10:28:44.371Z,553.00
2023-04-10T10:29:44.358Z,552.00
2023-04-10T10:30:44.373Z,550.00
2023-04-10T10:31:44.386Z,551.00
2023-04-10T10:32:44.354Z,552.00
2023-04-10T10:33:44.373Z,550.00
2023-04-10T10:34:44.367Z,551.00
2023-04-10T10:35:44.357Z,552.00
2023-04-10T10:36:44.420Z,549.00
2023-04-10T10:37:44.363Z,549.00
2023-04-10T10:38:44.355Z,550.00
2023-04-10T10:39:44.351Z,552.00
2023-04-10T10:40:44.378Z,550.00
2023-04-10T10:41:44.376Z,552.00
2023-04-10T10:42:44.430Z,553.00
2023-04-10T10:43:44.419Z,551.00
2023-04-10T10:44:44.422Z,551.00
2023-04-10T10:45:44.462Z,553.00
2023-04-10T10:46:44.491Z,555.00
2023-04-10T10:47:44.553Z,551.00
2023-04-10T10:48:44.482Z,546.00
2023-04-10T10:49:44.512Z,556.00
2023-04-10T10:50:44.526Z,553.00
2023-04-10T10:51:44.628Z,554.00
2023-04-10T10:52:44.594Z,556.00
2023-04-10T10:53:44.612Z,553.00
2023-04-10T10:54:57.035Z,556.00
2023-04-10T10:55:45.631Z,556.00
2023-04-10T10:56:44.611Z,556.00
2023-04-10T10:57:44.614Z,555.00
2023-04-10T10:58:44.597Z,558.00
2023-04-10T10:59:44.605Z,548.00
2023-04-10T11:00:44.625Z,560.00
2023-04-10T11:01:44.713Z,559.00
2023-04-10T11:02:44.657Z,551.00
2023-04-10T11:03:44.714Z,546.00
2023-04-10T11:04:44.563Z,538.00
2023-04-10T11:05:44.528Z,554.00
2023-04-10T11:06:44.780Z,558.00
2023-04-10T11:07:44.542Z,550.00
2023-04-10T11:08:44.596Z,554.00
2023-04-10T11:09:44.589Z,550.00
2023-04-10T11:10:44.670Z,555.00
2023-04-10T11:11:44.722Z,552.00
2023-04-10T11:12:44.782Z,546.00
2023-04-10T11:13:44.799Z,542.00
2023-04-10T11:14:44.882Z,541.00
2023-04-10T11:15:44.933Z,557.00
2023-04-10T11:16:45.062Z,550.00
2023-04-10T11:17:45.113Z,548.00
2023-04-10T11:18:45.118Z,551.00
2023-04-10T11:19:45.171Z,551.00
2023-04-10T11:20:45.222Z,540.00
2023-04-10T11:21:45.329Z,554.00
2023-04-10T11:22:45.346Z,556.00
2023-04-10T11:23:45.425Z,535.00
2023-04-10T11:24:45.506Z,548.00
2023-04-10T11:25:45.525Z,549.00
2023-04-10T11:26:45.630Z,547.00
2023-04-10T11:27:45.652Z,557.00
2023-04-10T11:28:45.707Z,555.00
2023-04-10T11:29:45.797Z,558.00
2023-04-10T11:30:45.820Z,559.00
2023-04-10T11:31:45.961Z,542.00
2023-04-10T11:32:45.979Z,541.00
2023-04-10T11:33:46.095Z,544.00
2023-04-10T11:34:46.056Z,550.00
2023-04-10T11:35:46.158Z,547.00
2023-04-10T11:36:46.543Z,556.00
2023-04-10T11:37:46.253Z,557.00
2023-04-10T11:38:46.317Z,538.00
2023-04-10T11:39:46.364Z,563.00
2023-04-10T11:40:46.446Z,555.00
2023-04-10T11:41:46.527Z,553.00
2023-04-10T11:42:46.557Z,551.00
2023-04-10T11:43:46.623Z,552.00
2023-04-10T11:44:48.789Z,546.00
2023-04-10T11:45:46.790Z,543.00
2023-04-10T11:46:46.823Z,556.00
2023-04-10T11:47:46.872Z,558.00
2023-04-10T11:48:46.906Z,544.00
2023-04-10T11:49:46.953Z,552.00
2023-04-10T11:50:47.069Z,553.00
2023-04-10T11:51:49.036Z,546.00
2023-04-10T11:52:47.175Z,552.00
2023-04-10T11:53:47.225Z,543.00
2023-04-10T11:54:47.285Z,537.00
2023-04-10T11:55:47.360Z,553.00
2023-04-10T11:56:47.407Z,554.00
2023-04-10T11:57:47.452Z,546.00
2023-04-10T11:58:47.528Z,542.00
2023-04-10T11:59:47.568Z,555.00
2023-04-10T12:00:47.645Z,547.00
2023-04-10T12:01:47.748Z,548.00
2023-04-10T12:02:47.868Z,539.00
2023-04-10T12:03:47.906Z,548.00
2023-04-10T12:04:47.946Z,548.00
2023-04-10T12:05:47.908Z,540.00
2023-04-10T12:06:47.976Z,552.00
2023-04-10T12:07:48.008Z,561.00
2023-04-10T12:08:48.122Z,538.00
2023-04-10T12:09:48.184Z,538.00
2023-04-10T12:10:48.227Z,551.00
2023-04-10T12:11:48.237Z,554.00
2023-04-10T12:12:48.367Z,560.00
2023-04-10T12:13:48.365Z,545.00
2023-04-10T12:14:48.415Z,549.00
2023-04-10T12:15:48.486Z,549.00
2023-04-10T12:16:48.558Z,550.00
2023-04-10T12:17:48.757Z,547.00
2023-04-10T12:18:48.642Z,553.00
2023-04-10T12:19:48.698Z,567.00
2023-04-10T12:20:48.727Z,531.00
2023-04-10T12:21:48.752Z,548.00
2023-04-10T12:22:48.852Z,556.00
2023-04-10T12:23:48.914Z,542.00
2023-04-10T12:24:48.935Z,547.00
2023-04-10T12:25:48.982Z,567.00
2023-04-10T12:26:49.047Z,557.00
2023-04-10T12:27:49.088Z,553.00
2023-04-10T12:28:49.085Z,548.00